Time;durP1;ratioP1;P1;durP2;ratioP2;P2;SDS_P1;SDS_P2;PMS_P1;PMS_P2;Temp;Humidity;BMP_temperature;BMP_pressure;BME280_temperature;BME280_humidity;BME280_pressure;Samples;Min_cycle;Max_cycle;Signal;HPM_P1;HPM_P2
2022/08/02 00:00:53;;;;;;;13.30;6.03;;;17.30;75.70;;;;;;5053426;28;20862;-76
2022/08/02 00:03:19;;;;;;;13.77;6.37;;;17.30;75.60;;;;;;5053422;28;20385;-75
2022/08/02 00:05:45;;;;;;;8.38;5.80;;;17.40;74.50;;;;;;5052625;28;20409;-75
2022/08/02 00:08:10;;;;;;;8.85;6.38;;;17.30;75.20;;;;;;5051216;28;20417;-75
2022/08/02 00:10:36;;;;;;;9.50;6.87;;;17.20;76.30;;;;;;5051082;28;20472;-74
2022/08/02 00:13:01;;;;;;;10.17;6.00;;;17.00;78.50;;;;;;5052641;28;20382;-75
2022/08/02 00:15:27;;;;;;;11.95;6.47;;;16.80;80.50;;;;;;5053118;28;20408;-74
2022/08/02 00:17:52;;;;;;;13.37;7.40;;;16.70;83.10;;;;;;5050138;28;20443;-74
2022/08/02 00:20:18;;;;;;;46.73;31.43;;;16.60;85.10;;;;;;5051038;28;20389;-74
2022/08/02 00:22:43;;;;;;;31.02;20.95;;;16.60;86.90;;;;;;5051245;28;20801;-75
2022/08/02 00:25:09;;;;;;;51.00;35.15;;;16.80;87.20;;;;;;5053184;28;20389;-75
2022/08/02 00:27:35;;;;;;;19.17;13.00;;;16.90;85.40;;;;;;5053533;28;20405;-74
2022/08/02 00:30:00;;;;;;;25.00;17.77;;;17.00;83.80;;;;;;5054127;28;20381;-75
2022/08/02 00:32:26;;;;;;;8.75;6.82;;;16.90;85.70;;;;;;5053418;28;20485;-74
2022/08/02 00:34:51;;;;;;;27.20;17.35;;;16.80;85.30;;;;;;5055849;28;20451;-74
2022/08/02 00:37:17;;;;;;;37.20;21.77;;;16.70;87.20;;;;;;5057069;28;20419;-75
2022/08/02 00:39:42;;;;;;;11.73;8.00;;;16.60;88.70;;;;;;5057017;28;20393;-74
2022/08/02 00:42:08;;;;;;;10.68;7.28;;;16.60;88.30;;;;;;5057397;28;20849;-75
2022/08/02 00:44:34;;;;;;;57.00;37.83;;;16.60;88.70;;;;;;5055965;28;20388;-75
2022/08/02 00:47:00;;;;;;;38.20;26.90;;;16.60;89.30;;;;;;5057040;28;20401;-73
2022/08/02 00:49:26;;;;;;;26.23;18.50;;;16.60;87.90;;;;;;5056906;28;20431;-74
2022/08/02 00:51:51;;;;;;;12.65;8.23;;;16.60;88.20;;;;;;5055044;28;20381;-73
2022/08/02 00:54:17;;;;;;;49.67;32.47;;;16.60;86.60;;;;;;5054595;28;20735;-75
2022/08/02 00:56:43;;;;;;;42.73;29.77;;;16.50;88.90;;;;;;5055711;28;20447;-74
2022/08/02 00:59:08;;;;;;;32.20;21.35;;;16.60;90.30;;;;;;5055690;28;20385;-75
2022/08/02 01:01:40;;;;;;;16.95;10.57;;;16.60;90.20;;;;;;5054789;28;20390;-74
2022/08/02 01:04:09;;;;;;;24.30;15.50;;;16.60;86.20;;;;;;5053927;28;20452;-74
2022/08/02 01:06:39;;;;;;;14.07;9.30;;;16.60;86.60;;;;;;5053602;28;20488;-74
2022/08/02 01:09:05;;;;;;;8.02;5.18;;;16.50;87.00;;;;;;5052125;28;20874;-75
2022/08/02 01:11:32;;;;;;;14.80;10.40;;;16.50;87.00;;;;;;5053570;28;20763;-74
2022/08/02 01:14:07;;;;;;;13.77;9.73;;;16.60;84.40;;;;;;5053980;28;20394;-75
2022/08/02 01:16:42;;;;;;;13.43;9.85;;;16.60;85.30;;;;;;5054639;28;20923;-74
2022/08/02 01:19:31;;;;;;;12.25;7.15;;;16.70;85.20;;;;;;5066449;28;20906;-74
2022/08/02 01:22:11;;;;;;;9.57;6.95;;;16.60;84.90;;;;;;5070471;28;20404;-74
2022/08/02 01:24:55;;;;;;;18.52;10.48;;;16.60;85.60;;;;;;5071239;28;20385;-73
2022/08/02 01:27:41;;;;;;;11.32;6.00;;;16.50;86.60;;;;;;5061898;28;20409;-73
2022/08/02 01:30:07;;;;;;;8.55;5.10;;;16.50;86.20;;;;;;5062213;28;20386;-74
2022/08/02 01:32:40;;;;;;;23.30;16.83;;;16.40;87.50;;;;;;5066085;28;20488;-74
2022/08/02 01:35:18;;;;;;;15.13;11.77;;;16.40;90.30;;;;;;5057363;28;20379;-74
2022/08/02 01:37:49;;;;;;;9.48;5.90;;;16.50;89.30;;;;;;5060479;28;20538;-73
2022/08/02 01:40:26;;;;;;;27.17;15.82;;;16.50;87.30;;;;;;5056304;28;20401;-75
2022/08/02 01:42:54;;;;;;;13.73;8.20;;;16.40;89.10;;;;;;5053720;28;20539;-74
2022/08/02 01:45:23;;;;;;;17.52;9.65;;;16.50;88.30;;;;;;5052937;28;20440;-75
2022/08/02 01:47:50;;;;;;;17.50;11.32;;;16.40;88.90;;;;;;5052730;28;20466;-75
2022/08/02 01:50:20;;;;;;;17.13;12.20;;;16.40;89.50;;;;;;5052908;28;20375;-74
2022/08/02 01:52:53;;;;;;;8.55;5.00;;;16.40;89.50;;;;;;5052467;28;20734;-74
2022/08/02 01:55:22;;;;;;;6.13;4.80;;;16.30;89.00;;;;;;5052602;28;20377;-74
2022/08/02 01:57:52;;;;;;;10.90;4.70;;;16.40;89.70;;;;;;5052944;28;20385;-74
2022/08/02 02:00:21;;;;;;;7.40;5.40;;;16.40;89.10;;;;;;5052866;28;20854;-74
2022/08/02 02:02:49;;;;;;;9.87;5.80;;;16.20;91.50;;;;;;5050995;28;20886;-75
2022/08/02 02:05:18;;;;;;;12.68;6.07;;;16.00;93.60;;;;;;5051077;28;20381;-75
2022/08/02 02:07:48;;;;;;;6.90;5.40;;;15.90;96.00;;;;;;5052215;28;20401;-74
2022/08/02 02:10:16;;;;;;;9.00;5.10;;;15.70;98.20;;;;;;5050970;28;20447;-74
2022/08/02 02:12:48;;;;;;;9.60;5.20;;;15.80;99.90;;;;;;5051858;28;20447;-74
2022/08/02 02:15:14;;;;;;;8.10;5.20;;;15.70;99.90;;;;;;5051921;28;20455;-74
2022/08/02 02:17:45;;;;;;;7.80;5.05;;;15.60;99.90;;;;;;5051933;28;20385;-74
2022/08/02 02:20:19;;;;;;;11.35;5.60;;;15.50;99.90;;;;;;5052144;28;20386;-74
2022/08/02 02:22:46;;;;;;;15.90;5.97;;;15.40;99.90;;;;;;5051519;28;20381;-74
2022/08/02 02:25:14;;;;;;;7.95;5.13;;;15.40;99.90;;;;;;5052068;28;20389;-74
2022/08/02 02:28:02;;;;;;;11.65;5.35;;;15.30;99.90;;;;;;5052029;28;20791;-74
2022/08/02 02:30:31;;;;;;;8.52;5.70;;;15.30;99.90;;;;;;5051660;28;20405;-74
2022/08/02 02:33:00;;;;;;;9.98;5.93;;;15.20;99.90;;;;;;5051824;28;20421;-76
2022/08/02 02:35:32;;;;;;;12.70;6.10;;;15.20;99.90;;;;;;5051704;28;20455;-73
2022/08/02 02:38:00;;;;;;;15.52;7.43;;;15.10;99.90;;;;;;5051551;28;20383;-74
2022/08/02 02:40:27;;;;;;;10.48;6.13;;;15.10;99.90;;;;;;5051737;28;20385;-73
2022/08/02 02:42:55;;;;;;;8.38;5.82;;;15.10;99.90;;;;;;5051196;28;20830;-74
2022/08/02 02:45:22;;;;;;;10.13;6.10;;;15.20;99.90;;;;;;5051467;28;20479;-75
2022/08/02 02:47:49;;;;;;;9.68;6.53;;;15.10;99.90;;;;;;5051268;28;20397;-74
2022/08/02 02:50:16;;;;;;;10.32;6.80;;;15.10;99.90;;;;;;5051488;28;20388;-74
2022/08/02 02:52:43;;;;;;;14.00;6.55;;;15.10;99.90;;;;;;5051103;28;20374;-74
2022/08/02 02:55:09;;;;;;;9.73;6.40;;;15.10;99.90;;;;;;5051126;28;20420;-75
2022/08/02 02:57:36;;;;;;;16.05;6.03;;;15.10;99.90;;;;;;5051430;28;20447;-74
2022/08/02 03:00:05;;;;;;;9.25;5.70;;;15.20;99.90;;;;;;5051364;28;20868;-74
2022/08/02 03:02:31;;;;;;;14.18;7.35;;;15.10;99.90;;;;;;5051082;28;20439;-74
2022/08/02 03:05:01;;;;;;;10.98;7.10;;;15.10;99.90;;;;;;5051265;28;20408;-74
2022/08/02 03:07:27;;;;;;;11.77;6.68;;;15.10;99.90;;;;;;5051080;28;20476;-73
2022/08/02 03:09:52;;;;;;;10.97;7.10;;;15.10;99.90;;;;;;5051188;28;20472;-74
2022/08/02 03:12:18;;;;;;;13.10;7.07;;;15.10;99.90;;;;;;5051048;28;20382;-74
2022/08/02 03:14:44;;;;;;;14.15;7.82;;;15.10;99.90;;;;;;5051084;28;20386;-74
2022/08/02 03:17:09;;;;;;;11.30;7.50;;;15.10;99.90;;;;;;5050994;28;20423;-74
2022/08/02 03:19:35;;;;;;;11.80;7.40;;;15.00;99.90;;;;;;5050809;28;20477;-74
2022/08/02 03:22:00;;;;;;;14.50;7.83;;;15.10;99.90;;;;;;5050510;28;20389;-73
2022/08/02 03:24:26;;;;;;;12.90;8.20;;;15.00;99.90;;;;;;5050886;28;20396;-74
2022/08/02 03:26:52;;;;;;;15.30;8.40;;;15.00;99.90;;;;;;5050750;28;20874;-73
2022/08/02 03:29:17;;;;;;;12.85;8.63;;;15.10;99.90;;;;;;5049547;28;20386;-75
2022/08/02 03:31:45;;;;;;;14.33;9.40;;;15.10;99.90;;;;;;5050882;28;20468;-74
2022/08/02 03:34:11;;;;;;;16.13;9.00;;;15.10;99.90;;;;;;5051178;28;20751;-74
2022/08/02 03:36:39;;;;;;;18.40;8.60;;;15.20;99.90;;;;;;5050580;28;20749;-74
2022/08/02 03:39:06;;;;;;;17.90;10.13;;;15.10;99.90;;;;;;5051046;28;20385;-74
2022/08/02 03:41:34;;;;;;;16.63;9.25;;;15.20;99.90;;;;;;5051741;28;20385;-74
2022/08/02 03:44:01;;;;;;;13.70;9.30;;;15.10;99.90;;;;;;5052658;28;20787;-73
2022/08/02 03:46:27;;;;;;;15.93;9.93;;;15.10;99.90;;;;;;5050368;28;20871;-74
2022/08/02 03:48:54;;;;;;;12.35;9.45;;;15.20;99.90;;;;;;5050476;28;20385;-75
2022/08/02 03:51:20;;;;;;;16.98;10.70;;;15.20;99.90;;;;;;5050357;28;20724;-74
2022/08/02 03:53:47;;;;;;;19.07;10.27;;;15.20;99.90;;;;;;5050614;28;20414;-74
2022/08/02 03:56:14;;;;;;;13.02;9.57;;;15.20;99.90;;;;;;5050952;28;20858;-74
2022/08/02 03:58:39;;;;;;;18.02;9.77;;;15.20;99.90;;;;;;5050763;28;20447;-74
2022/08/02 04:01:05;;;;;;;17.10;10.80;;;15.20;99.90;;;;;;5051239;28;20398;-74
2022/08/02 04:03:31;;;;;;;18.08;10.88;;;15.30;99.90;;;;;;5050930;28;20723;-75
2022/08/02 04:05:57;;;;;;;19.63;11.10;;;15.30;99.90;;;;;;5050881;28;20489;-74
2022/08/02 04:08:23;;;;;;;18.13;10.52;;;15.30;99.90;;;;;;5053120;28;20878;-74
2022/08/02 04:13:35;;;;;;;16.30;9.97;;;15.40;99.90;;;;;;5055320;28;20392;-75
2022/08/02 04:16:27;;;;;;;15.73;10.40;;;15.50;99.90;;;;;;5054639;28;20385;-75
2022/08/02 04:18:59;;;;;;;15.20;10.30;;;15.50;99.90;;;;;;5053048;28;20401;-75
2022/08/02 04:21:28;;;;;;;18.23;10.90;;;15.50;99.90;;;;;;5054011;28;20468;-75
2022/08/02 04:23:55;;;;;;;17.60;11.30;;;15.50;99.90;;;;;;5054713;28;20380;-74
2022/08/02 04:26:22;;;;;;;16.40;10.80;;;15.50;99.90;;;;;;5054198;28;20396;-73
2022/08/02 04:28:48;;;;;;;15.90;10.57;;;15.60;99.90;;;;;;5054434;28;20427;-74
2022/08/02 04:31:16;;;;;;;15.55;10.40;;;15.60;99.90;;;;;;5054000;28;20388;-75
2022/08/02 04:33:42;;;;;;;15.40;10.50;;;15.60;99.90;;;;;;5054216;28;20397;-74
2022/08/02 04:36:09;;;;;;;14.88;10.57;;;15.70;99.90;;;;;;5053818;28;20396;-74
2022/08/02 04:38:35;;;;;;;17.73;11.43;;;15.70;99.90;;;;;;5054620;28;20450;-74
2022/08/02 04:41:01;;;;;;;15.60;11.27;;;15.70;99.90;;;;;;5053305;28;20460;-74
2022/08/02 04:43:27;;;;;;;15.52;11.35;;;15.80;99.90;;;;;;5055357;28;20394;-74
2022/08/02 04:45:54;;;;;;;13.80;11.80;;;15.90;99.90;;;;;;5054141;28;20842;-74
2022/08/02 04:48:21;;;;;;;18.10;11.40;;;16.00;99.90;;;;;;5054591;28;20389;-74
2022/08/02 04:50:47;;;;;;;15.68;11.43;;;16.00;99.90;;;;;;5055421;28;20389;-75
2022/08/02 04:53:13;;;;;;;15.50;11.50;;;16.20;99.90;;;;;;5054897;28;20435;-75
2022/08/02 04:55:38;;;;;;;17.23;11.73;;;16.20;99.90;;;;;;5054802;28;20854;-75
2022/08/02 04:58:04;;;;;;;15.00;11.37;;;16.20;99.90;;;;;;5054168;28;20384;-74
2022/08/02 05:00:31;;;;;;;14.32;12.05;;;16.20;99.90;;;;;;5054973;28;20433;-73
2022/08/02 05:02:58;;;;;;;20.15;12.23;;;16.20;99.90;;;;;;5054574;28;20858;-74
2022/08/02 05:05:24;;;;;;;16.05;12.15;;;16.20;99.90;;;;;;5055345;28;20377;-74
2022/08/02 05:07:50;;;;;;;17.33;11.90;;;16.30;99.90;;;;;;5056509;28;20401;-73
2022/08/02 05:10:16;;;;;;;15.80;11.85;;;16.40;99.90;;;;;;5054832;28;20476;-73
2022/08/02 05:12:42;;;;;;;14.87;11.40;;;16.50;99.90;;;;;;5056059;28;20458;-74
2022/08/02 05:15:10;;;;;;;16.43;12.90;;;16.60;99.90;;;;;;5054652;28;20388;-74
2022/08/02 05:17:36;;;;;;;24.50;13.00;;;16.70;99.90;;;;;;5054458;28;20440;-73
2022/08/02 05:20:02;;;;;;;19.17;13.63;;;16.70;99.90;;;;;;5052826;28;20400;-74
2022/08/02 05:22:27;;;;;;;19.95;12.80;;;16.80;99.90;;;;;;5053113;28;20397;-73
2022/08/02 05:24:53;;;;;;;15.47;12.47;;;16.80;99.90;;;;;;5053804;28;20888;-75
2022/08/02 05:27:18;;;;;;;20.55;12.02;;;16.90;98.20;;;;;;5051815;28;20927;-74
2022/08/02 05:29:44;;;;;;;17.70;11.73;;;17.10;96.20;;;;;;5053569;28;20691;-76
2022/08/02 05:32:09;;;;;;;20.60;11.90;;;17.10;95.60;;;;;;5052957;28;20388;-72
2022/08/02 05:34:35;;;;;;;16.40;11.73;;;17.20;94.30;;;;;;5055592;28;20408;-74
2022/08/02 05:37:01;;;;;;;22.52;12.02;;;17.30;92.70;;;;;;5053989;28;20385;-75
2022/08/02 05:39:26;;;;;;;17.03;12.63;;;17.40;91.20;;;;;;5053959;28;20389;-73
2022/08/02 05:41:52;;;;;;;17.27;12.35;;;17.40;89.50;;;;;;5055960;28;20428;-74
2022/08/02 05:44:17;;;;;;;23.13;11.90;;;17.50;88.40;;;;;;5055836;28;20389;-74
2022/08/02 05:46:43;;;;;;;18.13;12.53;;;17.50;87.70;;;;;;5053567;28;20424;-74
2022/08/02 05:49:08;;;;;;;15.93;12.48;;;17.60;86.50;;;;;;5054943;28;20759;-73
2022/08/02 05:51:36;;;;;;;18.35;12.02;;;17.70;84.70;;;;;;5054186;28;20377;-74
2022/08/02 05:54:17;;;;;;;14.95;11.77;;;17.70;83.20;;;;;;5051697;28;20417;-74
2022/08/02 05:57:01;;;;;;;16.88;12.40;;;17.90;80.80;;;;;;5052823;28;20390;-75
2022/08/02 05:59:36;;;;;;;18.15;11.65;;;17.90;80.40;;;;;;5053340;28;20409;-73
2022/08/02 06:02:11;;;;;;;18.27;11.98;;;18.00;79.50;;;;;;5053148;28;20937;-76
2022/08/02 06:04:52;;;;;;;17.50;12.07;;;18.20;77.40;;;;;;5053730;28;20469;-74
2022/08/02 06:07:20;;;;;;;21.37;12.50;;;18.20;76.80;;;;;;5052495;28;20406;-76
2022/08/02 06:09:48;;;;;;;19.90;11.98;;;18.40;75.90;;;;;;5056007;28;20389;-75
2022/08/02 06:12:16;;;;;;;18.08;11.80;;;18.40;73.30;;;;;;5054306;28;20392;-75
2022/08/02 06:14:42;;;;;;;19.08;11.95;;;18.40;74.00;;;;;;5054024;28;20435;-74
2022/08/02 06:17:08;;;;;;;18.48;12.05;;;18.50;73.50;;;;;;5053356;28;20386;-74
2022/08/02 06:19:37;;;;;;;17.38;11.38;;;18.60;71.50;;;;;;5053273;28;20889;-75
2022/08/02 06:22:16;;;;;;;18.85;11.88;;;18.70;71.00;;;;;;5053018;28;20390;-75
2022/08/02 06:24:49;;;;;;;19.67;11.50;;;18.70;70.50;;;;;;5052846;28;20385;-75
2022/08/02 06:27:15;;;;;;;17.13;11.63;;;18.80;71.10;;;;;;5052611;28;20415;-75
2022/08/02 06:29:42;;;;;;;16.73;10.20;;;18.90;70.20;;;;;;5052224;28;20810;-74
2022/08/02 06:32:08;;;;;;;14.27;10.43;;;19.00;68.90;;;;;;5052446;28;20378;-75
2022/08/02 06:34:38;;;;;;;14.27;11.20;;;19.10;67.60;;;;;;5053007;28;20378;-74
2022/08/02 06:37:43;;;;;;;15.30;10.80;;;19.30;64.30;;;;;;5067630;28;20395;-76
2022/08/02 06:40:45;;;;;;;22.30;10.82;;;19.50;59.50;;;;;;5058272;28;20920;-74
2022/08/02 06:43:20;;;;;;;20.55;10.82;;;19.60;58.40;;;;;;5070330;28;20396;-76
2022/08/02 06:45:46;;;;;;;14.23;9.98;;;19.60;59.50;;;;;;5073360;28;20478;-75
2022/08/02 06:48:12;;;;;;;17.70;11.00;;;19.70;59.80;;;;;;5074305;28;20463;-75
2022/08/02 06:50:38;;;;;;;21.30;12.27;;;19.80;57.30;;;;;;5072007;28;20443;-76
2022/08/02 06:53:05;;;;;;;16.13;11.00;;;19.80;57.00;;;;;;5057549;28;20397;-77
2022/08/02 06:55:34;;;;;;;20.60;9.88;;;20.00;55.20;;;;;;5056907;28;20445;-77
2022/08/02 07:01:32;;;;;;;13.35;9.80;;;20.20;55.70;;;;;;5071871;28;20370;-74
2022/08/02 07:03:58;;;;;;;16.88;10.32;;;20.20;53.90;;;;;;5065760;28;20758;-75
2022/08/02 07:06:23;;;;;;;13.80;10.50;;;20.20;53.60;;;;;;5069937;28;20903;-75
2022/08/02 07:08:49;;;;;;;18.75;10.43;;;20.30;53.60;;;;;;5057541;28;20398;-75
2022/08/02 07:11:15;;;;;;;14.50;9.53;;;20.40;52.90;;;;;;5070733;28;20475;-75
2022/08/02 07:13:40;;;;;;;17.55;9.50;;;20.40;52.80;;;;;;5070831;28;20445;-74
2022/08/02 07:16:06;;;;;;;13.57;9.50;;;20.40;52.10;;;;;;5057123;28;20447;-73
2022/08/02 07:18:33;;;;;;;13.57;9.00;;;20.50;51.10;;;;;;5051411;28;20393;-73
2022/08/02 07:20:59;;;;;;;15.18;10.45;;;20.70;51.10;;;;;;5051304;28;20390;-73
2022/08/02 07:23:24;;;;;;;17.97;10.13;;;20.80;48.50;;;;;;5056934;28;20444;-73
2022/08/02 07:25:50;;;;;;;13.20;9.07;;;20.90;47.80;;;;;;5061736;28;20405;-73
2022/08/02 07:28:15;;;;;;;16.90;8.43;;;21.00;46.50;;;;;;5058483;28;20412;-73
2022/08/02 07:30:42;;;;;;;17.40;9.00;;;21.00;47.10;;;;;;5054653;28;20405;-73
2022/08/02 07:33:07;;;;;;;11.43;8.70;;;21.30;46.00;;;;;;5060088;28;20756;-74
2022/08/02 07:35:33;;;;;;;13.90;7.90;;;21.40;43.20;;;;;;5070844;28;20387;-73
2022/08/02 07:37:59;;;;;;;16.13;8.38;;;21.60;43.20;;;;;;5059066;28;20401;-73
2022/08/02 07:40:26;;;;;;;13.10;7.30;;;21.70;42.60;;;;;;5072304;28;20403;-78
2022/08/02 07:42:54;;;;;;;19.23;8.00;;;21.70;41.60;;;;;;5062677;28;20440;-74
2022/08/02 07:45:21;;;;;;;11.88;7.78;;;21.70;40.90;;;;;;5083992;28;20385;-74
2022/08/02 07:47:47;;;;;;;12.98;7.50;;;21.80;40.20;;;;;;5093139;28;20406;-74
2022/08/02 07:50:16;;;;;;;13.43;7.32;;;21.80;40.30;;;;;;5092475;28;20385;-74
2022/08/02 07:52:43;;;;;;;15.02;7.80;;;21.80;39.90;;;;;;5090894;28;20544;-74
2022/08/02 07:55:10;;;;;;;10.02;7.30;;;22.00;39.50;;;;;;5091143;28;20465;-74
2022/08/02 07:57:37;;;;;;;13.02;7.20;;;22.10;38.70;;;;;;5065551;28;20404;-73
2022/08/02 08:00:04;;;;;;;15.23;7.10;;;22.10;38.60;;;;;;5050713;28;20407;-75
2022/08/02 08:02:30;;;;;;;16.45;7.20;;;22.30;38.10;;;;;;5051236;28;20438;-74
2022/08/02 08:04:55;;;;;;;13.20;6.23;;;22.50;36.60;;;;;;5066415;28;20404;-73
2022/08/02 08:07:22;;;;;;;12.70;6.07;;;22.60;35.70;;;;;;5070848;28;20400;-74
2022/08/02 08:09:49;;;;;;;10.30;6.38;;;22.60;36.00;;;;;;5069360;28;20415;-74
2022/08/02 08:12:15;;;;;;;9.23;6.22;;;22.80;35.20;;;;;;5073825;28;20464;-75
2022/08/02 08:14:40;;;;;;;11.32;6.65;;;22.90;34.30;;;;;;5071592;28;20493;-73
2022/08/02 08:17:07;;;;;;;14.17;7.13;;;23.00;33.50;;;;;;5061158;28;20402;-73
2022/08/02 08:19:33;;;;;;;12.88;8.10;;;23.20;32.30;;;;;;5066923;28;20399;-74
2022/08/02 08:21:59;;;;;;;13.02;6.60;;;23.30;31.40;;;;;;5070376;28;20904;-74
2022/08/02 08:24:25;;;;;;;11.38;6.25;;;23.40;31.90;;;;;;5060100;28;20403;-75
2022/08/02 08:26:51;;;;;;;12.90;6.28;;;23.60;31.00;;;;;;5067502;28;20461;-75
2022/08/02 08:29:17;;;;;;;17.25;6.90;;;23.70;30.60;;;;;;5067900;28;20514;-75
2022/08/02 08:31:42;;;;;;;10.60;6.00;;;23.80;29.90;;;;;;5067130;28;20546;-75
2022/08/02 08:34:08;;;;;;;12.53;6.20;;;24.10;29.90;;;;;;5069157;28;20497;-76
2022/08/02 08:36:35;;;;;;;13.43;6.03;;;24.20;29.00;;;;;;5067141;28;20391;-75
2022/08/02 08:39:00;;;;;;;7.72;5.90;;;24.30;28.20;;;;;;5052236;28;20433;-75
2022/08/02 08:41:26;;;;;;;9.02;5.80;;;24.20;27.30;;;;;;5067119;28;20487;-74
2022/08/02 08:43:52;;;;;;;8.20;6.30;;;24.20;27.60;;;;;;5058763;28;20395;-73
2022/08/02 08:46:32;;;;;;;10.47;5.70;;;24.20;27.40;;;;;;5064657;28;20900;-74
2022/08/02 08:49:05;;;;;;;8.85;5.45;;;24.30;28.80;;;;;;5057644;28;20393;-74
2022/08/02 08:51:36;;;;;;;10.18;5.70;;;24.40;27.70;;;;;;5065508;28;20394;-75
2022/08/02 08:54:04;;;;;;;10.33;6.63;;;24.50;27.20;;;;;;5086787;28;20401;-74
2022/08/02 08:56:34;;;;;;;9.68;6.25;;;24.50;26.70;;;;;;5082496;28;20966;-75
2022/08/02 08:59:00;;;;;;;8.73;6.50;;;24.50;26.50;;;;;;5073215;28;20388;-74
2022/08/02 09:01:26;;;;;;;10.35;6.07;;;24.50;26.30;;;;;;5072478;28;20436;-75
2022/08/02 09:03:52;;;;;;;10.43;5.90;;;24.50;26.20;;;;;;5072410;28;20372;-75
2022/08/02 09:06:17;;;;;;;9.48;6.20;;;24.60;26.80;;;;;;5073711;28;20449;-75
2022/08/02 09:08:43;;;;;;;10.47;5.97;;;24.60;27.00;;;;;;5064731;28;20503;-74
2022/08/02 09:11:17;;;;;;;11.68;5.55;;;24.60;26.70;;;;;;5064148;28;20396;-75
2022/08/02 09:13:57;;;;;;;14.80;7.10;;;24.80;25.90;;;;;;5090185;28;20489;-74
2022/08/02 09:16:37;;;;;;;8.70;5.50;;;25.00;25.20;;;;;;5080130;28;20438;-73
2022/08/02 09:19:18;;;;;;;13.93;6.40;;;25.10;25.10;;;;;;5074596;28;20399;-74
2022/08/02 09:21:44;;;;;;;7.90;5.43;;;25.30;24.00;;;;;;5072234;28;20452;-74
2022/08/02 09:24:20;;;;;;;12.10;5.82;;;25.40;24.10;;;;;;5072326;28;20453;-74
2022/08/02 09:26:47;;;;;;;14.60;6.22;;;25.30;23.20;;;;;;5071730;28;20407;-74
2022/08/02 09:29:14;;;;;;;8.82;5.55;;;25.50;22.80;;;;;;5084778;28;20907;-73
2022/08/02 09:31:40;;;;;;;8.75;5.50;;;25.70;22.10;;;;;;5091020;28;20504;-75
2022/08/02 09:34:06;;;;;;;10.68;6.07;;;25.70;21.90;;;;;;5091342;28;20382;-75
2022/08/02 09:36:42;;;;;;;9.43;5.00;;;25.60;22.50;;;;;;5075291;28;20509;-74
2022/08/02 09:39:13;;;;;;;10.50;4.97;;;25.80;23.00;;;;;;5059705;28;20832;-75
2022/08/02 09:41:42;;;;;;;11.23;5.50;;;26.00;22.30;;;;;;5062453;28;20395;-75
2022/08/02 09:44:09;;;;;;;9.43;5.60;;;26.20;21.50;;;;;;5071201;28;20392;-75
2022/08/02 09:46:41;;;;;;;9.25;4.85;;;26.40;21.10;;;;;;5072897;28;20411;-75
2022/08/02 09:49:10;;;;;;;7.95;4.75;;;26.60;20.10;;;;;;5063905;28;20894;-75
2022/08/02 09:51:47;;;;;;;13.90;4.90;;;26.60;20.20;;;;;;5071905;28;20896;-75
2022/08/02 09:54:25;;;;;;;13.60;5.20;;;26.80;20.00;;;;;;5073789;28;20390;-74
2022/08/02 09:56:53;;;;;;;10.55;4.60;;;26.90;19.20;;;;;;5090827;28;20424;-74
2022/08/02 09:59:20;;;;;;;7.45;4.40;;;27.10;19.30;;;;;;5089558;28;20846;-74
2022/08/02 10:01:47;;;;;;;9.40;4.80;;;27.30;19.30;;;;;;5089272;28;20742;-74
2022/08/02 10:04:14;;;;;;;5.00;4.50;;;27.50;18.30;;;;;;5097704;28;20378;-74
2022/08/02 10:06:42;;;;;;;7.18;3.90;;;27.80;17.50;;;;;;5091410;28;20774;-75
2022/08/02 10:09:09;;;;;;;7.03;4.00;;;27.90;17.30;;;;;;5056484;28;20382;-74
2022/08/02 10:11:35;;;;;;;7.40;4.10;;;28.40;16.50;;;;;;5063372;28;20766;-74
2022/08/02 10:14:06;;;;;;;10.50;4.60;;;28.50;16.10;;;;;;5063642;28;20454;-74
2022/08/02 10:16:37;;;;;;;7.18;4.75;;;28.30;16.20;;;;;;5077130;28;20419;-74
2022/08/02 10:19:03;;;;;;;10.55;4.72;;;28.00;16.90;;;;;;5074530;28;20901;-75
2022/08/02 10:21:46;;;;;;;7.85;4.50;;;27.60;17.70;;;;;;5073128;28;20755;-76
2022/08/02 10:24:22;;;;;;;8.80;4.47;;;27.50;18.30;;;;;;5088904;28;20398;-75
2022/08/02 10:26:48;;;;;;;6.97;4.25;;;27.60;17.60;;;;;;5060153;28;20479;-74
2022/08/02 10:29:20;;;;;;;6.20;4.30;;;27.70;17.10;;;;;;5056303;28;20845;-74
2022/08/02 10:31:58;;;;;;;4.43;3.10;;;27.70;17.00;;;;;;5067540;28;20402;-75
2022/08/02 10:34:33;;;;;;;3.40;2.90;;;27.70;16.10;;;;;;5071128;28;20793;-75
2022/08/02 10:37:05;;;;;;;3.75;2.95;;;27.70;16.20;;;;;;5053264;28;20406;-75
2022/08/02 10:39:41;;;;;;;5.80;3.30;;;27.80;14.80;;;;;;5048369;28;20869;-75
2022/08/02 10:42:08;;;;;;;7.85;7.00;;;28.00;14.90;;;;;;5048750;28;20393;-75
2022/08/02 10:44:34;;;;;;;4.90;3.00;;;28.20;15.00;;;;;;5049720;28;20436;-74
2022/08/02 10:47:23;;;;;;;3.50;3.20;;;28.20;14.20;;;;;;5049912;28;20486;-75
2022/08/02 10:49:53;;;;;;;5.28;4.20;;;28.50;14.20;;;;;;5068443;28;20726;-75
2022/08/02 10:52:24;;;;;;;3.58;2.40;;;28.50;14.40;;;;;;5069545;28;20444;-75
2022/08/02 10:55:08;;;;;;;4.35;2.90;;;28.60;13.50;;;;;;5068102;28;20393;-76
2022/08/02 10:57:35;;;;;;;7.65;4.10;;;28.60;12.80;;;;;;5056919;28;20476;-75
2022/08/02 11:00:23;;;;;;;3.90;3.60;;;28.90;12.60;;;;;;5059302;28;20394;-75
2022/08/02 11:02:50;;;;;;;4.78;2.80;;;28.90;12.70;;;;;;5057258;28;20428;-75
2022/08/02 11:05:17;;;;;;;3.35;3.10;;;28.70;13.30;;;;;;5066622;28;20888;-75
2022/08/02 11:07:45;;;;;;;4.10;3.30;;;28.70;13.10;;;;;;5068571;28;20825;-76
2022/08/02 11:10:25;;;;;;;3.20;3.00;;;28.70;13.10;;;;;;5070709;28;20899;-75
2022/08/02 11:13:15;;;;;;;4.07;2.80;;;28.70;12.60;;;;;;5068348;28;20557;-75
2022/08/02 11:15:49;;;;;;;5.38;3.08;;;28.80;12.90;;;;;;5053145;28;20399;-76
2022/08/02 11:18:15;;;;;;;3.60;3.03;;;28.90;12.70;;;;;;5063103;28;20396;-75
2022/08/02 11:20:40;;;;;;;2.53;2.33;;;28.80;12.50;;;;;;5066144;28;20395;-75
2022/08/02 11:23:37;;;;;;;3.23;2.63;;;28.90;12.80;;;;;;5063206;28;20754;-75
2022/08/02 11:26:29;;;;;;;6.65;2.65;;;29.20;12.40;;;;;;5059196;28;20426;-75
2022/08/02 11:29:04;;;;;;;5.45;2.53;;;29.60;11.40;;;;;;5039498;28;20385;-75
2022/08/02 11:31:39;;;;;;;4.50;2.70;;;29.90;10.70;;;;;;5064702;28;20868;-76
2022/08/02 11:34:05;;;;;;;4.05;2.47;;;30.10;10.10;;;;;;5061668;28;20752;-75
2022/08/02 11:36:30;;;;;;;3.85;2.70;;;30.00;10.80;;;;;;5057310;28;20403;-75
2022/08/02 11:39:16;;;;;;;3.35;2.50;;;29.90;10.70;;;;;;5069665;28;20545;-75
2022/08/02 11:41:42;;;;;;;4.65;2.70;;;30.10;9.90;;;;;;5051035;28;20397;-75
2022/08/02 11:44:08;;;;;;;4.67;2.70;;;29.90;10.60;;;;;;5061851;28;20392;-75
2022/08/02 11:46:34;;;;;;;4.10;2.80;;;29.90;10.70;;;;;;5069539;28;20411;-75
2022/08/02 11:49:13;;;;;;;2.75;2.53;;;30.00;10.90;;;;;;5052857;28;20464;-76
2022/08/02 11:52:00;;;;;;;3.00;2.70;;;29.90;10.20;;;;;;5050824;28;20385;-76
2022/08/02 11:54:34;;;;;;;5.53;2.70;;;29.80;10.30;;;;;;5054634;28;20422;-76
2022/08/02 11:57:17;;;;;;;7.20;2.70;;;30.00;10.20;;;;;;5062299;28;20499;-75
2022/08/02 11:59:45;;;;;;;5.57;2.40;;;30.10;10.00;;;;;;5059438;28;20881;-75
2022/08/02 12:02:11;;;;;;;5.50;2.87;;;30.10;9.00;;;;;;5087094;28;20404;-76
2022/08/02 12:04:38;;;;;;;3.60;2.60;;;30.20;9.20;;;;;;5089870;28;20484;-75
2022/08/02 12:07:05;;;;;;;6.18;3.10;;;30.50;9.10;;;;;;5090410;28;20394;-75
2022/08/02 12:09:32;;;;;;;7.20;2.90;;;30.50;9.00;;;;;;5088853;28;20382;-76
2022/08/02 12:11:59;;;;;;;5.32;2.90;;;30.90;8.40;;;;;;5068095;28;20760;-75
2022/08/02 12:14:26;;;;;;;2.92;2.40;;;31.10;8.20;;;;;;5051826;28;20432;-75
2022/08/02 12:19:37;;;;;;;4.75;2.88;;;31.00;7.90;;;;;;5068775;28;20386;-75
2022/08/02 12:22:19;;;;;;;5.32;2.75;;;30.90;7.40;;;;;;5050415;28;20793;-75
2022/08/02 12:24:47;;;;;;;3.00;2.70;;;30.50;7.90;;;;;;5052337;28;20392;-75
2022/08/02 12:27:39;;;;;;;2.63;2.43;;;30.30;9.10;;;;;;5064425;28;20412;-75
2022/08/02 12:30:13;;;;;;;4.00;2.60;;;29.80;9.20;;;;;;5068253;28;20404;-75
2022/08/02 12:32:39;;;;;;;3.80;2.60;;;29.50;9.80;;;;;;5055254;28;20825;-76
2022/08/02 12:35:08;;;;;;;3.40;2.90;;;29.60;9.30;;;;;;5058304;28;20482;-75
2022/08/02 12:37:36;;;;;;;6.00;3.03;;;29.80;9.60;;;;;;5066029;28;20496;-75
2022/08/02 12:40:24;;;;;;;8.02;2.90;;;30.20;9.70;;;;;;5063391;28;20391;-75
2022/08/02 12:42:56;;;;;;;4.72;2.80;;;30.30;8.70;;;;;;5074063;28;20411;-77
2022/08/02 12:45:22;;;;;;;4.70;2.60;;;30.50;9.10;;;;;;5077867;28;20396;-76
2022/08/02 12:47:50;;;;;;;5.40;2.65;;;30.70;8.10;;;;;;5073066;28;20487;-77
2022/08/02 12:50:25;;;;;;;5.90;2.60;;;30.90;6.80;;;;;;5073700;28;20380;-76
2022/08/02 12:53:09;;;;;;;2.95;2.30;;;31.00;7.20;;;;;;5063145;28;20712;-76
2022/08/02 12:55:46;;;;;;;3.28;2.47;;;31.20;6.90;;;;;;5092849;28;20374;-77
2022/08/02 12:58:11;;;;;;;3.20;2.20;;;31.50;6.10;;;;;;5072012;28;20438;-75